sensor_id;sensor_type;location;lat;lon;timestamp;temperature;humidity
25741;DHT22;13592;50.838;4.412;2022-09-09T00:00:31;17.30;99.90
25741;DHT22;13592;50.838;4.412;2022-09-09T00:03:26;17.20;99.90
25741;DHT22;13592;50.838;4.412;2022-09-09T00:05:59;17.30;99.90
25741;DHT22;13592;50.838;4.412;2022-09-09T00:11:15;17.30;99.90
25741;DHT22;13592;50.838;4.412;2022-09-09T00:13:46;17.10;99.90
25741;DHT22;13592;50.838;4.412;2022-09-09T00:16:24;17.20;99.90
25741;DHT22;13592;50.838;4.412;2022-09-09T00:21:20;17.40;99.90
25741;DHT22;13592;50.838;4.412;2022-09-09T00:23:56;17.50;99.90
25741;DHT22;13592;50.838;4.412;2022-09-09T00:26:32;17.40;99.90
25741;DHT22;13592;50.838;4.412;2022-09-09T00:32:17;17.30;99.90
25741;DHT22;13592;50.838;4.412;2022-09-09T00:37:50;17.50;99.90
25741;DHT22;13592;50.838;4.412;2022-09-09T00:42:55;17.60;99.90
25741;DHT22;13592;50.838;4.412;2022-09-09T00:48:14;17.60;99.90
25741;DHT22;13592;50.838;4.412;2022-09-09T00:53:51;17.60;99.90
25741;DHT22;13592;50.838;4.412;2022-09-09T00:56:18;17.50;99.90
25741;DHT22;13592;50.838;4.412;2022-09-09T00:59:08;17.60;99.90
25741;DHT22;13592;50.838;4.412;2022-09-09T01:01:52;17.50;99.90
25741;DHT22;13592;50.838;4.412;2022-09-09T01:04:44;17.40;99.90
25741;DHT22;13592;50.838;4.412;2022-09-09T01:07:17;17.40;99.90
25741;DHT22;13592;50.838;4.412;2022-09-09T01:09:57;17.50;99.90
25741;DHT22;13592;50.838;4.412;2022-09-09T01:12:38;17.60;99.90
25741;DHT22;13592;50.838;4.412;2022-09-09T01:15:10;17.70;99.90
25741;DHT22;13592;50.838;4.412;2022-09-09T01:17:51;17.70;99.90
25741;DHT22;13592;50.838;4.412;2022-09-09T01:20:28;17.70;99.90
25741;DHT22;13592;50.838;4.412;2022-09-09T01:28:46;17.40;99.90
25741;DHT22;13592;50.838;4.412;2022-09-09T01:31:15;17.40;99.90
25741;DHT22;13592;50.838;4.412;2022-09-09T01:34:04;17.60;99.90
25741;DHT22;13592;50.838;4.412;2022-09-09T01:36:58;17.60;99.90
25741;DHT22;13592;50.838;4.412;2022-09-09T01:39:25;17.50;99.90
25741;DHT22;13592;50.838;4.412;2022-09-09T01:41:53;17.60;99.90
25741;DHT22;13592;50.838;4.412;2022-09-09T01:44:21;17.50;99.90
25741;DHT22;13592;50.838;4.412;2022-09-09T01:46:47;17.50;99.90
25741;DHT22;13592;50.838;4.412;2022-09-09T01:49:19;17.50;99.90
25741;DHT22;13592;50.838;4.412;2022-09-09T01:51:46;17.50;99.90
25741;DHT22;13592;50.838;4.412;2022-09-09T01:54:14;17.40;99.90
25741;DHT22;13592;50.838;4.412;2022-09-09T02:04:44;17.50;99.90
25741;DHT22;13592;50.838;4.412;2022-09-09T02:07:26;17.50;99.90
25741;DHT22;13592;50.838;4.412;2022-09-09T02:10:16;17.60;99.90
25741;DHT22;13592;50.838;4.412;2022-09-09T02:12:51;17.40;99.90
25741;DHT22;13592;50.838;4.412;2022-09-09T02:17:56;17.50;99.90
25741;DHT22;13592;50.838;4.412;2022-09-09T02:20:24;17.60;99.90
25741;DHT22;13592;50.838;4.412;2022-09-09T02:22:58;17.40;99.90
25741;DHT22;13592;50.838;4.412;2022-09-09T02:25:28;17.70;99.90
25741;DHT22;13592;50.838;4.412;2022-09-09T02:27:59;17.70;99.90
25741;DHT22;13592;50.838;4.412;2022-09-09T02:30:26;17.60;99.90
25741;DHT22;13592;50.838;4.412;2022-09-09T02:32:54;17.50;99.90
25741;DHT22;13592;50.838;4.412;2022-09-09T02:38:10;17.50;99.90
25741;DHT22;13592;50.838;4.412;2022-09-09T02:40:43;17.60;99.90
25741;DHT22;13592;50.838;4.412;2022-09-09T02:43:14;17.60;99.90
25741;DHT22;13592;50.838;4.412;2022-09-09T02:48:29;17.80;99.90
25741;DHT22;13592;50.838;4.412;2022-09-09T02:51:06;17.70;99.90
25741;DHT22;13592;50.838;4.412;2022-09-09T02:56:08;17.70;99.90
25741;DHT22;13592;50.838;4.412;2022-09-09T02:58:56;17.70;99.90
25741;DHT22;13592;50.838;4.412;2022-09-09T03:01:35;17.60;99.90
25741;DHT22;13592;50.838;4.412;2022-09-09T03:04:07;17.70;99.90
25741;DHT22;13592;50.838;4.412;2022-09-09T03:06:32;17.90;99.90
25741;DHT22;13592;50.838;4.412;2022-09-09T03:09:01;17.80;99.90
25741;DHT22;13592;50.838;4.412;2022-09-09T03:11:45;17.90;99.90
25741;DHT22;13592;50.838;4.412;2022-09-09T03:16:51;17.80;99.90
25741;DHT22;13592;50.838;4.412;2022-09-09T03:19:32;17.70;99.90
25741;DHT22;13592;50.838;4.412;2022-09-09T03:21:57;17.70;99.90
25741;DHT22;13592;50.838;4.412;2022-09-09T03:24:36;17.70;99.90
25741;DHT22;13592;50.838;4.412;2022-09-09T03:27:13;17.50;99.90
25741;DHT22;13592;50.838;4.412;2022-09-09T03:29:42;17.50;99.90
25741;DHT22;13592;50.838;4.412;2022-09-09T03:32:13;17.50;99.90
25741;DHT22;13592;50.838;4.412;2022-09-09T03:35:11;17.50;99.90
25741;DHT22;13592;50.838;4.412;2022-09-09T03:37:44;17.60;99.90
25741;DHT22;13592;50.838;4.412;2022-09-09T03:40:19;17.60;99.90
25741;DHT22;13592;50.838;4.412;2022-09-09T03:42:45;17.60;99.90
25741;DHT22;13592;50.838;4.412;2022-09-09T03:45:11;17.60;99.90
25741;DHT22;13592;50.838;4.412;2022-09-09T03:50:35;17.60;99.90
25741;DHT22;13592;50.838;4.412;2022-09-09T03:53:16;17.70;99.90
25741;DHT22;13592;50.838;4.412;2022-09-09T03:55:55;17.70;99.90
25741;DHT22;13592;50.838;4.412;2022-09-09T03:58:33;17.80;99.90
25741;DHT22;13592;50.838;4.412;2022-09-09T04:01:04;17.70;99.90
25741;DHT22;13592;50.838;4.412;2022-09-09T04:03:32;17.60;99.90
25741;DHT22;13592;50.838;4.412;2022-09-09T04:05:59;17.70;99.90
25741;DHT22;13592;50.838;4.412;2022-09-09T04:08:28;17.60;99.90
25741;DHT22;13592;50.838;4.412;2022-09-09T04:11:14;17.60;99.90
25741;DHT22;13592;50.838;4.412;2022-09-09T04:16:20;17.70;99.90
25741;DHT22;13592;50.838;4.412;2022-09-09T04:18:55;17.80;99.90
25741;DHT22;13592;50.838;4.412;2022-09-09T04:21:30;17.70;99.90
25741;DHT22;13592;50.838;4.412;2022-09-09T04:23:59;17.60;99.90
25741;DHT22;13592;50.838;4.412;2022-09-09T04:26:48;17.80;99.90
25741;DHT22;13592;50.838;4.412;2022-09-09T04:29:17;17.80;99.90
25741;DHT22;13592;50.838;4.412;2022-09-09T04:31:57;17.70;99.90
25741;DHT22;13592;50.838;4.412;2022-09-09T04:34:49;17.60;99.90
25741;DHT22;13592;50.838;4.412;2022-09-09T04:37:26;17.60;99.90
25741;DHT22;13592;50.838;4.412;2022-09-09T04:39:52;17.60;99.90
25741;DHT22;13592;50.838;4.412;2022-09-09T04:42:28;17.50;99.90
25741;DHT22;13592;50.838;4.412;2022-09-09T04:45:02;17.50;99.90
25741;DHT22;13592;50.838;4.412;2022-09-09T04:47:51;17.60;99.90
25741;DHT22;13592;50.838;4.412;2022-09-09T04:50:25;17.60;99.90
25741;DHT22;13592;50.838;4.412;2022-09-09T04:55:23;17.60;99.90
25741;DHT22;13592;50.838;4.412;2022-09-09T04:58:07;17.50;99.90
25741;DHT22;13592;50.838;4.412;2022-09-09T05:00:34;17.50;99.90
25741;DHT22;13592;50.838;4.412;2022-09-09T05:03:02;17.70;99.90
25741;DHT22;13592;50.838;4.412;2022-09-09T05:05:29;17.70;99.90
25741;DHT22;13592;50.838;4.412;2022-09-09T05:08:02;17.70;99.90
25741;DHT22;13592;50.838;4.412;2022-09-09T05:10:35;17.50;99.90
25741;DHT22;13592;50.838;4.412;2022-09-09T05:13:05;17.50;99.90
25741;DHT22;13592;50.838;4.412;2022-09-09T05:18:02;17.70;99.90
25741;DHT22;13592;50.838;4.412;2022-09-09T05:20:30;17.70;99.90
25741;DHT22;13592;50.838;4.412;2022-09-09T05:23:11;17.60;99.90
25741;DHT22;13592;50.838;4.412;2022-09-09T05:25:41;17.70;99.90
25741;DHT22;13592;50.838;4.412;2022-09-09T05:28:15;17.70;99.90
25741;DHT22;13592;50.838;4.412;2022-09-09T05:31:09;17.70;99.90
25741;DHT22;13592;50.838;4.412;2022-09-09T05:33:51;17.70;99.90
25741;DHT22;13592;50.838;4.412;2022-09-09T05:36:20;17.80;99.90
25741;DHT22;13592;50.838;4.412;2022-09-09T05:38:46;17.70;99.90
25741;DHT22;13592;50.838;4.412;2022-09-09T05:41:13;17.70;99.90
25741;DHT22;13592;50.838;4.412;2022-09-09T05:43:43;17.70;99.90
25741;DHT22;13592;50.838;4.412;2022-09-09T05:46:15;17.90;99.90
25741;DHT22;13592;50.838;4.412;2022-09-09T05:48:43;17.80;99.90
25741;DHT22;13592;50.838;4.412;2022-09-09T05:51:13;17.70;99.90
25741;DHT22;13592;50.838;4.412;2022-09-09T05:53:43;17.90;99.90
25741;DHT22;13592;50.838;4.412;2022-09-09T05:56:10;18.00;99.90
25741;DHT22;13592;50.838;4.412;2022-09-09T05:58:36;17.70;99.90
25741;DHT22;13592;50.838;4.412;2022-09-09T06:01:13;17.80;99.90
25741;DHT22;13592;50.838;4.412;2022-09-09T06:03:41;18.00;99.90
25741;DHT22;13592;50.838;4.412;2022-09-09T06:06:11;17.90;99.90
25741;DHT22;13592;50.838;4.412;2022-09-09T06:08:38;17.80;99.90
25741;DHT22;13592;50.838;4.412;2022-09-09T06:11:08;17.90;99.90
25741;DHT22;13592;50.838;4.412;2022-09-09T06:13:39;17.90;99.90
25741;DHT22;13592;50.838;4.412;2022-09-09T06:16:13;18.10;99.90
25741;DHT22;13592;50.838;4.412;2022-09-09T06:18:50;18.10;99.90
25741;DHT22;13592;50.838;4.412;2022-09-09T06:21:23;18.10;99.90
25741;DHT22;13592;50.838;4.412;2022-09-09T06:23:53;18.20;99.90
25741;DHT22;13592;50.838;4.412;2022-09-09T06:26:20;18.40;99.90
25741;DHT22;13592;50.838;4.412;2022-09-09T06:29:09;18.50;99.90
25741;DHT22;13592;50.838;4.412;2022-09-09T06:31:35;18.30;99.90
25741;DHT22;13592;50.838;4.412;2022-09-09T06:34:06;18.40;99.90
25741;DHT22;13592;50.838;4.412;2022-09-09T06:36:37;18.40;99.90
25741;DHT22;13592;50.838;4.412;2022-09-09T06:39:06;18.60;99.90
25741;DHT22;13592;50.838;4.412;2022-09-09T06:41:34;18.70;99.90
25741;DHT22;13592;50.838;4.412;2022-09-09T06:44:03;18.80;99.90
25741;DHT22;13592;50.838;4.412;2022-09-09T06:46:30;18.70;99.90
25741;DHT22;13592;50.838;4.412;2022-09-09T06:48:57;18.70;99.90
25741;DHT22;13592;50.838;4.412;2022-09-09T06:51:29;18.70;99.90
25741;DHT22;13592;50.838;4.412;2022-09-09T06:53:58;18.70;99.90
25741;DHT22;13592;50.838;4.412;2022-09-09T06:56:29;18.60;99.90
25741;DHT22;13592;50.838;4.412;2022-09-09T06:58:56;18.50;99.90
25741;DHT22;13592;50.838;4.412;2022-09-09T07:01:34;18.60;99.90
25741;DHT22;13592;50.838;4.412;2022-09-09T07:04:00;18.70;99.90
25741;DHT22;13592;50.838;4.412;2022-09-09T07:06:34;18.70;99.90
25741;DHT22;13592;50.838;4.412;2022-09-09T07:09:13;18.70;99.90
25741;DHT22;13592;50.838;4.412;2022-09-09T07:11:40;18.60;99.90
25741;DHT22;13592;50.838;4.412;2022-09-09T07:14:08;18.70;99.90
25741;DHT22;13592;50.838;4.412;2022-09-09T07:16:46;18.80;99.90
25741;DHT22;13592;50.838;4.412;2022-09-09T07:19:13;18.80;99.90
25741;DHT22;13592;50.838;4.412;2022-09-09T07:21:40;18.60;99.90
25741;DHT22;13592;50.838;4.412;2022-09-09T07:24:08;18.50;99.90
25741;DHT22;13592;50.838;4.412;2022-09-09T07:26:36;18.60;99.90
25741;DHT22;13592;50.838;4.412;2022-09-09T07:29:03;18.60;99.90
25741;DHT22;13592;50.838;4.412;2022-09-09T07:31:31;18.40;99.90
25741;DHT22;13592;50.838;4.412;2022-09-09T07:33:57;18.40;99.90
25741;DHT22;13592;50.838;4.412;2022-09-09T07:36:35;18.50;99.90
25741;DHT22;13592;50.838;4.412;2022-09-09T07:39:19;18.50;99.90
25741;DHT22;13592;50.838;4.412;2022-09-09T07:41:47;18.60;99.90
25741;DHT22;13592;50.838;4.412;2022-09-09T07:44:16;18.50;99.90
25741;DHT22;13592;50.838;4.412;2022-09-09T07:46:42;18.40;99.90
25741;DHT22;13592;50.838;4.412;2022-09-09T07:49:14;18.40;99.90
25741;DHT22;13592;50.838;4.412;2022-09-09T07:51:51;18.20;99.90
25741;DHT22;13592;50.838;4.412;2022-09-09T07:54:22;18.00;99.90
25741;DHT22;13592;50.838;4.412;2022-09-09T07:56:59;17.90;99.90
25741;DHT22;13592;50.838;4.412;2022-09-09T07:59:25;18.00;99.90
25741;DHT22;13592;50.838;4.412;2022-09-09T08:01:58;18.10;99.90
25741;DHT22;13592;50.838;4.412;2022-09-09T08:04:29;18.00;99.90
25741;DHT22;13592;50.838;4.412;2022-09-09T08:09:29;18.20;99.90
25741;DHT22;13592;50.838;4.412;2022-09-09T08:12:13;18.40;99.90
25741;DHT22;13592;50.838;4.412;2022-09-09T08:14:54;18.70;99.90
25741;DHT22;13592;50.838;4.412;2022-09-09T08:17:21;19.10;99.90
25741;DHT22;13592;50.838;4.412;2022-09-09T08:19:49;19.20;99.90
25741;DHT22;13592;50.838;4.412;2022-09-09T08:22:15;19.30;99.90
25741;DHT22;13592;50.838;4.412;2022-09-09T08:24:57;19.50;99.90
25741;DHT22;13592;50.838;4.412;2022-09-09T08:27:37;19.40;99.90
25741;DHT22;13592;50.838;4.412;2022-09-09T08:30:23;19.10;99.90
25741;DHT22;13592;50.838;4.412;2022-09-09T08:33:02;19.20;99.90
25741;DHT22;13592;50.838;4.412;2022-09-09T08:35:28;19.30;99.90
25741;DHT22;13592;50.838;4.412;2022-09-09T08:38:02;19.20;99.90
25741;DHT22;13592;50.838;4.412;2022-09-09T08:40:40;19.10;99.90
25741;DHT22;13592;50.838;4.412;2022-09-09T08:43:14;19.00;99.90
25741;DHT22;13592;50.838;4.412;2022-09-09T08:51:32;19.20;99.90
25741;DHT22;13592;50.838;4.412;2022-09-09T08:54:07;19.20;99.90
25741;DHT22;13592;50.838;4.412;2022-09-09T08:56:36;19.20;99.90
25741;DHT22;13592;50.838;4.412;2022-09-09T08:59:07;19.10;99.90
25741;DHT22;13592;50.838;4.412;2022-09-09T09:02:11;18.90;99.90
25741;DHT22;13592;50.838;4.412;2022-09-09T09:04:41;18.90;99.90
25741;DHT22;13592;50.838;4.412;2022-09-09T09:12:51;18.90;99.90
25741;DHT22;13592;50.838;4.412;2022-09-09T09:15:26;18.90;99.90
25741;DHT22;13592;50.838;4.412;2022-09-09T09:18:00;18.90;99.90
25741;DHT22;13592;50.838;4.412;2022-09-09T09:23:35;18.80;99.90
25741;DHT22;13592;50.838;4.412;2022-09-09T09:26:06;18.60;99.90
25741;DHT22;13592;50.838;4.412;2022-09-09T09:28:47;18.30;99.90
25741;DHT22;13592;50.838;4.412;2022-09-09T09:36:12;18.30;99.90
25741;DHT22;13592;50.838;4.412;2022-09-09T09:38:56;18.30;99.90
25741;DHT22;13592;50.838;4.412;2022-09-09T09:41:44;18.20;99.90
25741;DHT22;13592;50.838;4.412;2022-09-09T09:44:26;18.10;99.90
25741;DHT22;13592;50.838;4.412;2022-09-09T09:46:52;18.10;99.90
25741;DHT22;13592;50.838;4.412;2022-09-09T09:49:19;18.10;99.90
25741;DHT22;13592;50.838;4.412;2022-09-09T09:51:48;18.20;99.90
25741;DHT22;13592;50.838;4.412;2022-09-09T09:54:17;18.20;99.90
25741;DHT22;13592;50.838;4.412;2022-09-09T09:56:55;18.20;99.90
25741;DHT22;13592;50.838;4.412;2022-09-09T09:59:41;18.20;99.90
25741;DHT22;13592;50.838;4.412;2022-09-09T10:02:25;18.00;99.90
25741;DHT22;13592;50.838;4.412;2022-09-09T10:05:20;18.00;99.90
25741;DHT22;13592;50.838;4.412;2022-09-09T10:08:33;18.00;99.90
25741;DHT22;13592;50.838;4.412;2022-09-09T10:10:49;18.00;99.90
25741;DHT22;13592;50.838;4.412;2022-09-09T10:13:20;18.00;99.90
25741;DHT22;13592;50.838;4.412;2022-09-09T10:21:21;18.10;99.90
25741;DHT22;13592;50.838;4.412;2022-09-09T10:26:51;18.00;99.90
25741;DHT22;13592;50.838;4.412;2022-09-09T10:29:26;18.00;99.90
25741;DHT22;13592;50.838;4.412;2022-09-09T10:32:11;18.00;99.90
25741;DHT22;13592;50.838;4.412;2022-09-09T10:34:50;18.20;99.90
25741;DHT22;13592;50.838;4.412;2022-09-09T10:39:49;18.40;99.90
25741;DHT22;13592;50.838;4.412;2022-09-09T10:42:21;18.70;99.90
25741;DHT22;13592;50.838;4.412;2022-09-09T10:50:14;18.80;99.90
25741;DHT22;13592;50.838;4.412;2022-09-09T10:55:25;18.90;99.90
25741;DHT22;13592;50.838;4.412;2022-09-09T11:00:58;19.20;99.90
25741;DHT22;13592;50.838;4.412;2022-09-09T11:06:50;19.50;99.90
25741;DHT22;13592;50.838;4.412;2022-09-09T11:12:21;19.40;99.90
25741;DHT22;13592;50.838;4.412;2022-09-09T11:17:53;19.40;99.90
25741;DHT22;13592;50.838;4.412;2022-09-09T11:38:52;19.40;99.90
25741;DHT22;13592;50.838;4.412;2022-09-09T11:41:01;19.30;99.90
25741;DHT22;13592;50.838;4.412;2022-09-09T11:43:30;19.30;99.90
25741;DHT22;13592;50.838;4.412;2022-09-09T11:45:59;19.50;99.90
25741;DHT22;13592;50.838;4.412;2022-09-09T11:48:42;19.40;99.90
25741;DHT22;13592;50.838;4.412;2022-09-09T11:54:03;19.40;99.90
25741;DHT22;13592;50.838;4.412;2022-09-09T11:57:31;19.50;99.90
25741;DHT22;13592;50.838;4.412;2022-09-09T11:59:56;19.50;99.90
25741;DHT22;13592;50.838;4.412;2022-09-09T12:02:27;19.40;99.90
25741;DHT22;13592;50.838;4.412;2022-09-09T12:04:56;19.50;99.90
25741;DHT22;13592;50.838;4.412;2022-09-09T12:13:21;19.60;99.90
25741;DHT22;13592;50.838;4.412;2022-09-09T12:19:19;19.60;99.90
25741;DHT22;13592;50.838;4.412;2022-09-09T12:22:16;19.60;99.90
25741;DHT22;13592;50.838;4.412;2022-09-09T12:28:02;19.70;99.90
25741;DHT22;13592;50.838;4.412;2022-09-09T12:40:23;19.50;99.90
25741;DHT22;13592;50.838;4.412;2022-09-09T12:42:52;19.70;99.90
25741;DHT22;13592;50.838;4.412;2022-09-09T12:45:42;19.80;99.90
25741;DHT22;13592;50.838;4.412;2022-09-09T12:48:20;19.90;99.90
25741;DHT22;13592;50.838;4.412;2022-09-09T12:50:49;20.00;99.90
25741;DHT22;13592;50.838;4.412;2022-09-09T12:53:35;20.20;99.90
25741;DHT22;13592;50.838;4.412;2022-09-09T12:56:07;20.30;99.90
25741;DHT22;13592;50.838;4.412;2022-09-09T12:58:45;20.10;99.90
25741;DHT22;13592;50.838;4.412;2022-09-09T13:01:22;20.20;99.90
25741;DHT22;13592;50.838;4.412;2022-09-09T13:03:50;20.30;99.90
25741;DHT22;13592;50.838;4.412;2022-09-09T13:06:27;20.30;99.90
25741;DHT22;13592;50.838;4.412;2022-09-09T13:09:09;20.40;99.90
25741;DHT22;13592;50.838;4.412;2022-09-09T13:14:19;20.50;99.90
25741;DHT22;13592;50.838;4.412;2022-09-09T13:28:51;20.30;99.90
25741;DHT22;13592;50.838;4.412;2022-09-09T13:33:53;20.50;99.90
25741;DHT22;13592;50.838;4.412;2022-09-09T13:36:48;20.60;99.90
25741;DHT22;13592;50.838;4.412;2022-09-09T13:39:16;20.50;99.90
25741;DHT22;13592;50.838;4.412;2022-09-09T13:41:52;20.50;99.90
25741;DHT22;13592;50.838;4.412;2022-09-09T13:47:02;20.50;99.90
25741;DHT22;13592;50.838;4.412;2022-09-09T13:49:45;20.70;99.90
25741;DHT22;13592;50.838;4.412;2022-09-09T13:52:36;20.70;99.90
25741;DHT22;13592;50.838;4.412;2022-09-09T13:55:24;20.80;99.90
25741;DHT22;13592;50.838;4.412;2022-09-09T13:58:14;20.80;99.90
25741;DHT22;13592;50.838;4.412;2022-09-09T14:00:48;20.90;99.90
25741;DHT22;13592;50.838;4.412;2022-09-09T14:03:22;21.00;99.90
25741;DHT22;13592;50.838;4.412;2022-09-09T14:05:51;20.90;99.90
25741;DHT22;13592;50.838;4.412;2022-09-09T14:08:36;21.00;99.90
25741;DHT22;13592;50.838;4.412;2022-09-09T14:11:03;20.80;99.90
25741;DHT22;13592;50.838;4.412;2022-09-09T14:13:35;21.00;99.90
25741;DHT22;13592;50.838;4.412;2022-09-09T14:16:07;20.90;99.90
25741;DHT22;13592;50.838;4.412;2022-09-09T14:18:46;21.00;99.90
25741;DHT22;13592;50.838;4.412;2022-09-09T14:21:17;21.10;99.90
25741;DHT22;13592;50.838;4.412;2022-09-09T14:23:48;21.00;99.90
25741;DHT22;13592;50.838;4.412;2022-09-09T14:26:40;21.00;99.90
25741;DHT22;13592;50.838;4.412;2022-09-09T14:29:06;20.90;99.90
25741;DHT22;13592;50.838;4.412;2022-09-09T14:31:33;20.60;99.90
25741;DHT22;13592;50.838;4.412;2022-09-09T14:34:01;20.60;99.90
25741;DHT22;13592;50.838;4.412;2022-09-09T14:36:27;20.60;99.90
25741;DHT22;13592;50.838;4.412;2022-09-09T14:38:56;20.50;99.90
25741;DHT22;13592;50.838;4.412;2022-09-09T14:41:24;20.60;99.90
25741;DHT22;13592;50.838;4.412;2022-09-09T14:43:51;20.70;99.90
25741;DHT22;13592;50.838;4.412;2022-09-09T14:46:19;20.80;99.90
25741;DHT22;13592;50.838;4.412;2022-09-09T14:48:48;20.90;99.90
25741;DHT22;13592;50.838;4.412;2022-09-09T14:51:20;20.90;99.90
25741;DHT22;13592;50.838;4.412;2022-09-09T14:53:52;20.90;99.90
25741;DHT22;13592;50.838;4.412;2022-09-09T14:56:21;20.80;99.90
25741;DHT22;13592;50.838;4.412;2022-09-09T14:58:49;20.80;99.90
25741;DHT22;13592;50.838;4.412;2022-09-09T15:01:18;20.90;99.90
25741;DHT22;13592;50.838;4.412;2022-09-09T15:03:50;21.00;99.90
25741;DHT22;13592;50.838;4.412;2022-09-09T15:06:30;20.90;99.90
25741;DHT22;13592;50.838;4.412;2022-09-09T15:08:57;20.80;99.90
25741;DHT22;13592;50.838;4.412;2022-09-09T15:11:33;20.70;99.90
25741;DHT22;13592;50.838;4.412;2022-09-09T15:14:03;20.60;99.90
25741;DHT22;13592;50.838;4.412;2022-09-09T15:16:31;20.70;99.90
25741;DHT22;13592;50.838;4.412;2022-09-09T15:18:58;20.70;99.90
25741;DHT22;13592;50.838;4.412;2022-09-09T15:21:34;20.70;99.90
25741;DHT22;13592;50.838;4.412;2022-09-09T15:24:08;20.80;99.90
25741;DHT22;13592;50.838;4.412;2022-09-09T15:26:36;21.00;99.90
25741;DHT22;13592;50.838;4.412;2022-09-09T15:29:09;21.00;99.90
25741;DHT22;13592;50.838;4.412;2022-09-09T15:31:35;21.00;99.90
25741;DHT22;13592;50.838;4.412;2022-09-09T15:34:02;20.80;99.90
25741;DHT22;13592;50.838;4.412;2022-09-09T15:36:29;20.90;99.90
25741;DHT22;13592;50.838;4.412;2022-09-09T15:38:57;20.80;99.90
25741;DHT22;13592;50.838;4.412;2022-09-09T15:41:26;20.70;99.90
25741;DHT22;13592;50.838;4.412;2022-09-09T15:46:52;20.70;99.90
25741;DHT22;13592;50.838;4.412;2022-09-09T15:49:23;20.80;99.90
25741;DHT22;13592;50.838;4.412;2022-09-09T15:51:59;20.90;99.90
25741;DHT22;13592;50.838;4.412;2022-09-09T15:54:33;20.80;99.90
25741;DHT22;13592;50.838;4.412;2022-09-09T15:57:18;20.90;99.90
25741;DHT22;13592;50.838;4.412;2022-09-09T15:59:55;21.00;99.90
25741;DHT22;13592;50.838;4.412;2022-09-09T16:02:22;20.70;99.90
25741;DHT22;13592;50.838;4.412;2022-09-09T16:05:14;20.70;99.90
25741;DHT22;13592;50.838;4.412;2022-09-09T16:07:43;20.60;99.90
25741;DHT22;13592;50.838;4.412;2022-09-09T16:10:12;20.60;99.90
25741;DHT22;13592;50.838;4.412;2022-09-09T16:12:52;20.60;99.90
25741;DHT22;13592;50.838;4.412;2022-09-09T16:15:35;20.50;99.90
25741;DHT22;13592;50.838;4.412;2022-09-09T16:18:01;20.60;99.90
25741;DHT22;13592;50.838;4.412;2022-09-09T16:20:36;20.60;99.90
25741;DHT22;13592;50.838;4.412;2022-09-09T16:23:20;20.70;99.90
25741;DHT22;13592;50.838;4.412;2022-09-09T16:26:11;20.70;99.90
25741;DHT22;13592;50.838;4.412;2022-09-09T16:29:02;20.60;99.90
25741;DHT22;13592;50.838;4.412;2022-09-09T16:31:37;20.50;99.90
25741;DHT22;13592;50.838;4.412;2022-09-09T16:34:10;20.60;99.90
25741;DHT22;13592;50.838;4.412;2022-09-09T16:36:40;20.60;99.90
25741;DHT22;13592;50.838;4.412;2022-09-09T16:39:13;20.20;99.90
25741;DHT22;13592;50.838;4.412;2022-09-09T16:41:48;19.90;99.90
25741;DHT22;13592;50.838;4.412;2022-09-09T16:44:22;19.60;99.90
25741;DHT22;13592;50.838;4.412;2022-09-09T16:47:25;19.50;99.90
25741;DHT22;13592;50.838;4.412;2022-09-09T16:50:33;19.40;99.90
25741;DHT22;13592;50.838;4.412;2022-09-09T16:53:18;19.20;99.90
25741;DHT22;13592;50.838;4.412;2022-09-09T16:56:07;19.20;99.90
25741;DHT22;13592;50.838;4.412;2022-09-09T16:58:57;19.20;99.90
25741;DHT22;13592;50.838;4.412;2022-09-09T17:01:29;19.10;99.90
25741;DHT22;13592;50.838;4.412;2022-09-09T17:04:28;19.20;99.90
25741;DHT22;13592;50.838;4.412;2022-09-09T17:07:08;19.10;99.90
25741;DHT22;13592;50.838;4.412;2022-09-09T17:09:49;19.20;99.90
25741;DHT22;13592;50.838;4.412;2022-09-09T17:12:14;19.30;99.90
25741;DHT22;13592;50.838;4.412;2022-09-09T17:14:43;19.20;99.90
25741;DHT22;13592;50.838;4.412;2022-09-09T17:17:13;19.10;99.90
25741;DHT22;13592;50.838;4.412;2022-09-09T17:19:47;19.20;99.90
25741;DHT22;13592;50.838;4.412;2022-09-09T17:22:37;19.10;99.90
25741;DHT22;13592;50.838;4.412;2022-09-09T17:25:21;19.30;99.90
25741;DHT22;13592;50.838;4.412;2022-09-09T17:28:08;19.30;99.90
25741;DHT22;13592;50.838;4.412;2022-09-09T17:31:15;19.40;99.90
25741;DHT22;13592;50.838;4.412;2022-09-09T17:33:50;19.20;99.90
25741;DHT22;13592;50.838;4.412;2022-09-09T17:36:37;19.30;99.90
25741;DHT22;13592;50.838;4.412;2022-09-09T17:39:21;19.40;99.90
25741;DHT22;13592;50.838;4.412;2022-09-09T17:41:51;19.20;99.90
25741;DHT22;13592;50.838;4.412;2022-09-09T17:44:25;19.10;99.90
25741;DHT22;13592;50.838;4.412;2022-09-09T17:47:02;19.20;99.90
25741;DHT22;13592;50.838;4.412;2022-09-09T17:49:58;19.20;99.90
25741;DHT22;13592;50.838;4.412;2022-09-09T17:52:26;19.30;99.90
25741;DHT22;13592;50.838;4.412;2022-09-09T17:54:55;19.30;99.90
25741;DHT22;13592;50.838;4.412;2022-09-09T17:57:22;19.30;99.90
25741;DHT22;13592;50.838;4.412;2022-09-09T17:59:52;19.30;99.90
25741;DHT22;13592;50.838;4.412;2022-09-09T18:02:25;19.30;99.90
25741;DHT22;13592;50.838;4.412;2022-09-09T18:04:59;19.10;99.90
25741;DHT22;13592;50.838;4.412;2022-09-09T18:07:35;18.80;99.90
25741;DHT22;13592;50.838;4.412;2022-09-09T18:15:54;19.10;99.90
25741;DHT22;13592;50.838;4.412;2022-09-09T18:18:25;19.10;99.90
25741;DHT22;13592;50.838;4.412;2022-09-09T18:21:11;19.10;99.90
25741;DHT22;13592;50.838;4.412;2022-09-09T18:23:45;19.10;99.90
25741;DHT22;13592;50.838;4.412;2022-09-09T18:26:14;18.90;99.90
25741;DHT22;13592;50.838;4.412;2022-09-09T18:28:52;19.00;99.90
25741;DHT22;13592;50.838;4.412;2022-09-09T18:31:32;19.20;99.90
25741;DHT22;13592;50.838;4.412;2022-09-09T18:34:20;19.00;99.90
25741;DHT22;13592;50.838;4.412;2022-09-09T18:36:57;18.90;99.90
25741;DHT22;13592;50.838;4.412;2022-09-09T18:39:29;19.00;99.90
25741;DHT22;13592;50.838;4.412;2022-09-09T18:42:01;19.10;99.90
25741;DHT22;13592;50.838;4.412;2022-09-09T18:44:50;19.00;99.90
25741;DHT22;13592;50.838;4.412;2022-09-09T18:47:18;18.90;99.90
25741;DHT22;13592;50.838;4.412;2022-09-09T18:49:44;19.20;99.90
25741;DHT22;13592;50.838;4.412;2022-09-09T18:52:29;19.20;99.90
25741;DHT22;13592;50.838;4.412;2022-09-09T18:54:58;19.00;99.90
25741;DHT22;13592;50.838;4.412;2022-09-09T18:57:43;18.90;99.90
25741;DHT22;13592;50.838;4.412;2022-09-09T19:00:23;18.90;99.90
25741;DHT22;13592;50.838;4.412;2022-09-09T19:02:49;18.90;99.90
25741;DHT22;13592;50.838;4.412;2022-09-09T19:05:18;18.80;99.90
25741;DHT22;13592;50.838;4.412;2022-09-09T19:07:53;18.70;99.90
25741;DHT22;13592;50.838;4.412;2022-09-09T19:12:53;18.70;99.90
25741;DHT22;13592;50.838;4.412;2022-09-09T19:15:20;18.80;99.90
25741;DHT22;13592;50.838;4.412;2022-09-09T19:17:47;18.90;99.90
25741;DHT22;13592;50.838;4.412;2022-09-09T19:20:14;18.90;99.90